Time;durP1;ratioP1;P1;durP2;ratioP2;P2;SDS_P1;SDS_P2;PMS_P1;PMS_P2;Temp;Humidity;BMP_temperature;BMP_pressure;BME280_temperature;BME280_humidity;BME280_pressure;Samples;Min_cycle;Max_cycle;Signal;HPM_P1;HPM_P2
2022/03/25 00:00:36;;;;;;;;;;;;;;;;;;4834289;29;20064;-70
2022/03/25 00:03:04;;;;;;;133.68;79.30;;;;;;;;;;4820497;29;19987;-70
2022/03/25 00:05:31;;;;;;;132.60;83.80;;;;;;;;;;4820504;29;20062;-70
2022/03/25 00:07:57;;;;;;;139.57;82.40;;;;;;;;;;4820637;29;20059;-70
2022/03/25 00:10:23;;;;;;;;;;;;;;;;;;4804098;29;20076;-70
2022/03/25 00:12:50;;;;;;;132.95;81.88;;;;;;;;;;4820315;29;20031;-71
2022/03/25 00:15:16;;;;;;;127.75;79.05;;;;;;;;;;4820136;29;20061;-70
2022/03/25 00:17:42;;;;;;;;;;;;;;;;;;4820747;29;20138;-70
2022/03/25 00:20:08;;;;;;;124.90;78.47;;;;;;;;;;4819987;29;19925;-70
2022/03/25 00:22:34;;;;;;;125.82;77.65;;;;;;;;;;4820407;29;20165;-70
2022/03/25 00:25:01;;;;;;;130.48;82.53;;;;;;;;;;4820311;29;20097;-70
2022/03/25 00:27:27;;;;;;;;;;;;;;;;;;4803913;29;20118;-70
2022/03/25 00:29:53;;;;;;;136.45;77.57;;;;;;;;;;4820841;29;20242;-70
2022/03/25 00:32:21;;;;;;;131.25;82.30;;;;;;;;;;4823270;29;20058;-70
2022/03/25 00:34:47;;;;;;;134.60;84.40;;;;;;;;;;4823338;29;20058;-70
2022/03/25 00:37:13;;;;;;;139.63;79.88;;;;;;;;;;4823419;29;20057;-70
2022/03/25 00:39:39;;;;;;;134.90;81.63;;;;;;;;;;4823449;29;20050;-70
2022/03/25 00:42:06;;;;;;;132.50;80.30;;;;;;;;;;4823330;29;20057;-70
2022/03/25 00:44:35;;;;;;;133.52;80.53;;;;;;;;;;4836606;29;20137;-70
2022/03/25 00:47:02;;;;;;;138.90;80.50;;;;;;;;;;4837085;29;20054;-70
2022/03/25 00:49:29;;;;;;;134.43;79.82;;;;;;;;;;4836923;29;20092;-70
2022/03/25 00:51:56;;;;;;;132.55;78.50;;;;;;;;;;4822866;29;20095;-71
2022/03/25 00:54:23;;;;;;;129.60;76.60;;;;;;;;;;4822806;29;20160;-69
2022/03/25 00:56:49;;;;;;;130.52;78.65;;;;;;;;;;4806295;29;20046;-69
2022/03/25 00:59:15;;;;;;;131.80;77.78;;;;;;;;;;4806167;29;20125;-70
2022/03/25 01:01:41;;;;;;;;;;;;;;;;;;4823199;29;20046;-70
2022/03/25 01:04:08;;;;;;;124.47;75.90;;;;;;;;;;4822647;29;20037;-70
2022/03/25 01:06:34;;;;;;;125.90;78.30;;;;;;;;;;4822525;29;20050;-70
2022/03/25 01:09:00;;;;;;;;;;;;;;;;;;4822880;29;20109;-70
2022/03/25 01:11:27;;;;;;;127.57;75.78;;;;;;;;;;4822492;29;20013;-70
2022/03/25 01:13:53;;;;;;;;;;;;;;;;;;4823013;29;20077;-70
2022/03/25 01:16:20;;;;;;;127.88;77.00;;;;;;;;;;4822001;29;20307;-70
2022/03/25 01:18:46;;;;;;;121.65;72.53;;;;;;;;;;4822415;29;20105;-70
2022/03/25 01:21:12;;;;;;;128.70;78.03;;;;;;;;;;4822067;29;20050;-70
2022/03/25 01:23:39;;;;;;;130.80;76.03;;;;;;;;;;4822222;29;20066;-70
2022/03/25 01:26:05;;;;;;;126.90;77.22;;;;;;;;;;4822264;29;20133;-70
2022/03/25 01:28:34;;;;;;;125.25;77.10;;;;;;;;;;4836228;29;20142;-70
2022/03/25 01:31:01;;;;;;;133.90;77.90;;;;;;;;;;4805405;29;20149;-72
2022/03/25 01:33:28;;;;;;;131.77;76.78;;;;;;;;;;4821893;29;20452;-70
2022/03/25 01:35:55;;;;;;;127.38;75.53;;;;;;;;;;4821829;29;20076;-70
2022/03/25 01:38:21;;;;;;;129.98;76.28;;;;;;;;;;4805683;29;20093;-70
2022/03/25 01:40:47;;;;;;;127.85;74.82;;;;;;;;;;4835379;29;20391;-70
2022/03/25 01:43:13;;;;;;;132.30;76.60;;;;;;;;;;4835421;29;20464;-70
2022/03/25 01:45:40;;;;;;;134.75;76.55;;;;;;;;;;4835607;29;20352;-70
2022/03/25 01:48:10;;;;;;;130.10;75.53;;;;;;;;;;4821924;29;20061;-70
2022/03/25 01:50:37;;;;;;;142.60;78.88;;;;;;;;;;4821580;29;20089;-70
2022/03/25 01:53:03;;;;;;;131.57;78.88;;;;;;;;;;4821799;29;20125;-71
2022/03/25 01:55:36;;;;;;;133.57;78.53;;;;;;;;;;4821723;29;20057;-70
2022/03/25 01:58:02;;;;;;;133.68;80.35;;;;;;;;;;4821499;29;20077;-71
2022/03/25 02:00:29;;;;;;;134.23;80.85;;;;;;;;;;4805129;29;20065;-70
2022/03/25 02:02:55;;;;;;;146.30;81.40;;;;;;;;;;4821332;29;20177;-70
2022/03/25 02:05:21;;;;;;;139.60;82.45;;;;;;;;;;4821370;29;20053;-70
2022/03/25 02:07:47;;;;;;;132.88;77.57;;;;;;;;;;4821466;29;20428;-69
2022/03/25 02:10:14;;;;;;;144.20;81.25;;;;;;;;;;4821275;29;20134;-70
2022/03/25 02:12:41;;;;;;;136.20;79.40;;;;;;;;;;4821523;29;20125;-70
2022/03/25 02:15:07;;;;;;;;;;;;;;;;;;4821329;29;20138;-70
2022/03/25 02:17:33;;;;;;;133.88;81.28;;;;;;;;;;4821239;29;19944;-70
2022/03/25 02:19:59;;;;;;;136.98;80.70;;;;;;;;;;4821282;29;20058;-70
2022/03/25 02:22:25;;;;;;;135.45;82.53;;;;;;;;;;4821078;29;20070;-70
2022/03/25 02:24:52;;;;;;;128.60;76.95;;;;;;;;;;4821308;29;20050;-70
2022/03/25 02:27:18;;;;;;;129.25;79.47;;;;;;;;;;4821109;29;20409;-70
2022/03/25 02:29:45;;;;;;;138.00;78.88;;;;;;;;;;4804747;29;20098;-69
2022/03/25 02:32:12;;;;;;;136.32;79.20;;;;;;;;;;4821336;29;20106;-70
2022/03/25 02:34:38;;;;;;;142.60;78.57;;;;;;;;;;4821263;29;20172;-70
2022/03/25 02:37:06;;;;;;;143.07;79.68;;;;;;;;;;4821294;29;20237;-69
2022/03/25 02:39:32;;;;;;;129.98;77.35;;;;;;;;;;4821240;29;20073;-70
2022/03/25 02:41:58;;;;;;;141.05;80.78;;;;;;;;;;4834444;29;20050;-70
2022/03/25 02:44:25;;;;;;;;;;;;;;;;;;4821579;29;20046;-70
2022/03/25 02:46:51;;;;;;;125.60;74.70;;;;;;;;;;4821305;29;20323;-70
2022/03/25 02:49:18;;;;;;;128.55;74.93;;;;;;;;;;4821024;29;20430;-70
2022/03/25 02:51:44;;;;;;;126.57;74.50;;;;;;;;;;4821074;29;20054;-69
2022/03/25 02:54:10;;;;;;;129.35;75.60;;;;;;;;;;4820692;29;20208;-71
2022/03/25 02:56:36;;;;;;;123.35;72.53;;;;;;;;;;4834517;29;20054;-70
2022/03/25 02:59:02;;;;;;;128.77;76.78;;;;;;;;;;4834806;29;20054;-70
2022/03/25 03:01:29;;;;;;;118.88;72.53;;;;;;;;;;4820869;29;20062;-70
2022/03/25 03:03:55;;;;;;;126.75;71.43;;;;;;;;;;4820844;29;20061;-70
2022/03/25 03:06:21;;;;;;;124.70;72.22;;;;;;;;;;4820792;29;20050;-70
2022/03/25 03:08:47;;;;;;;130.57;75.35;;;;;;;;;;4820525;29;20062;-70
2022/03/25 03:11:13;;;;;;;124.07;71.93;;;;;;;;;;4820597;29;20094;-70
2022/03/25 03:13:39;;;;;;;121.30;73.70;;;;;;;;;;4820620;29;20073;-70
2022/03/25 03:16:06;;;;;;;123.00;73.93;;;;;;;;;;4822278;29;20446;-70
2022/03/25 03:18:33;;;;;;;124.70;75.53;;;;;;;;;;4784379;29;20120;-70
2022/03/25 03:20:59;;;;;;;;;;;;;;;;;;4767924;30;20149;-70
2022/03/25 03:23:25;;;;;;;128.88;73.55;;;;;;;;;;4783904;30;19974;-70
2022/03/25 03:25:51;;;;;;;128.30;73.47;;;;;;;;;;4784193;30;20054;-70
2022/03/25 03:28:17;;;;;;;115.93;70.57;;;;;;;;;;4783942;30;20391;-70
2022/03/25 03:30:43;;;;;;;124.78;72.85;;;;;;;;;;4784209;30;20212;-70
2022/03/25 03:33:09;;;;;;;120.32;72.43;;;;;;;;;;4784036;30;20055;-70
2022/03/25 03:35:36;;;;;;;120.97;69.78;;;;;;;;;;4783832;30;20055;-70
2022/03/25 03:38:03;;;;;;;124.15;73.00;;;;;;;;;;4784152;30;20131;-70
2022/03/25 03:40:29;;;;;;;114.63;70.28;;;;;;;;;;4783767;30;20059;-70
2022/03/25 03:42:55;;;;;;;120.28;70.63;;;;;;;;;;4783743;30;20558;-70
2022/03/25 03:45:21;;;;;;;122.47;72.18;;;;;;;;;;4783889;30;20126;-70
2022/03/25 03:47:47;;;;;;;118.32;72.10;;;;;;;;;;4784094;30;20063;-70
2022/03/25 03:50:15;;;;;;;114.18;67.20;;;;;;;;;;4782647;30;20327;-70
2022/03/25 03:52:42;;;;;;;113.28;67.53;;;;;;;;;;4812511;29;20074;-70
2022/03/25 03:55:07;;;;;;;;;;;;;;;;;;4784497;29;20140;-70
2022/03/25 03:57:35;;;;;;;110.78;65.65;;;;;;;;;;4783854;30;20050;-70
2022/03/25 04:00:01;;;;;;;100.85;62.67;;;;;;;;;;4782691;30;20047;-70
2022/03/25 04:02:27;;;;;;;;;;;;;;;;;;4784480;30;20182;-70
2022/03/25 04:04:53;;;;;;;94.05;56.75;;;;;;;;;;4784926;29;20360;-70
2022/03/25 04:07:20;;;;;;;97.30;59.03;;;;;;;;;;4789854;30;20141;-70
2022/03/25 04:09:46;;;;;;;94.13;59.08;;;;;;;;;;4789913;30;20191;-70
2022/03/25 04:12:13;;;;;;;95.85;60.03;;;;;;;;;;4788180;30;20055;-70
2022/03/25 04:14:39;;;;;;;96.25;57.55;;;;;;;;;;4788593;30;20151;-70
2022/03/25 04:17:07;;;;;;;94.05;58.03;;;;;;;;;;4820966;29;20119;-70
2022/03/25 04:19:33;;;;;;;99.55;58.75;;;;;;;;;;4825916;29;20479;-70
2022/03/25 04:21:59;;;;;;;100.15;58.83;;;;;;;;;;4839812;29;20058;-71
2022/03/25 04:24:25;;;;;;;92.00;55.92;;;;;;;;;;4825735;29;20137;-70
2022/03/25 04:26:51;;;;;;;96.68;56.88;;;;;;;;;;4839376;29;20546;-70
2022/03/25 04:29:18;;;;;;;92.78;56.85;;;;;;;;;;4825405;29;20057;-70
2022/03/25 04:31:45;;;;;;;93.72;56.60;;;;;;;;;;4809218;29;20053;-70
2022/03/25 04:34:11;;;;;;;96.40;57.03;;;;;;;;;;4825425;29;20091;-71
2022/03/25 04:36:37;;;;;;;89.40;55.22;;;;;;;;;;4825918;29;20049;-70
2022/03/25 04:39:03;;;;;;;98.63;57.75;;;;;;;;;;4839908;29;20125;-70
2022/03/25 04:41:29;;;;;;;92.88;55.75;;;;;;;;;;4825934;29;20125;-70
2022/03/25 04:43:55;;;;;;;89.60;56.38;;;;;;;;;;4825567;29;20445;-70
2022/03/25 04:46:21;;;;;;;96.43;58.50;;;;;;;;;;4824945;29;20054;-72
2022/03/25 04:48:48;;;;;;;97.65;58.70;;;;;;;;;;4825778;29;20161;-70
2022/03/25 04:51:14;;;;;;;91.50;56.55;;;;;;;;;;4825668;29;20061;-70
2022/03/25 04:53:40;;;;;;;92.95;56.88;;;;;;;;;;4825386;29;20483;-71
2022/03/25 04:56:06;;;;;;;101.05;58.20;;;;;;;;;;4839194;29;20058;-70
2022/03/25 04:58:32;;;;;;;101.50;57.78;;;;;;;;;;4825238;29;20126;-70
2022/03/25 05:00:58;;;;;;;92.82;56.97;;;;;;;;;;4825620;29;20050;-71
2022/03/25 05:03:24;;;;;;;96.82;58.83;;;;;;;;;;4825262;29;20054;-71
2022/03/25 05:05:51;;;;;;;101.18;59.65;;;;;;;;;;4825449;29;20264;-70
2022/03/25 05:08:17;;;;;;;105.45;60.78;;;;;;;;;;4839464;29;20130;-68
2022/03/25 05:10:43;;;;;;;101.75;58.42;;;;;;;;;;4825300;29;20073;-71
2022/03/25 05:13:09;;;;;;;104.78;59.95;;;;;;;;;;4825464;29;20363;-71
2022/03/25 05:15:35;;;;;;;106.20;62.33;;;;;;;;;;4824970;29;20496;-69
2022/03/25 05:18:02;;;;;;;110.63;62.78;;;;;;;;;;4822354;29;20132;-68
2022/03/25 05:20:28;;;;;;;110.25;61.45;;;;;;;;;;4822433;29;20126;-70
2022/03/25 05:22:54;;;;;;;114.50;64.40;;;;;;;;;;4822008;29;20099;-69
2022/03/25 05:25:21;;;;;;;113.72;65.03;;;;;;;;;;4821899;29;20060;-69
2022/03/25 05:27:51;;;;;;;106.90;64.25;;;;;;;;;;4835349;29;20058;-69
2022/03/25 05:30:21;;;;;;;104.80;61.08;;;;;;;;;;4820818;29;20137;-70
2022/03/25 05:32:47;;;;;;;114.43;65.50;;;;;;;;;;4804138;29;20058;-70
2022/03/25 05:35:14;;;;;;;106.35;64.78;;;;;;;;;;4820391;29;20483;-69
2022/03/25 05:37:40;;;;;;;112.03;64.63;;;;;;;;;;4820545;29;20054;-69
2022/03/25 05:40:07;;;;;;;116.65;67.13;;;;;;;;;;4820504;29;20106;-69
2022/03/25 05:42:33;;;;;;;117.95;67.43;;;;;;;;;;4833832;29;20050;-70
2022/03/25 05:44:59;;;;;;;;;;;;;;;;;;4820760;29;20161;-70
2022/03/25 05:47:25;;;;;;;117.97;65.90;;;;;;;;;;4820194;29;20070;-69
2022/03/25 05:49:51;;;;;;;124.15;68.88;;;;;;;;;;4820287;29;20062;-70
2022/03/25 05:52:18;;;;;;;119.05;68.90;;;;;;;;;;4820248;29;20050;-68
2022/03/25 05:54:44;;;;;;;125.93;72.85;;;;;;;;;;4803429;29;20152;-68
2022/03/25 05:57:10;;;;;;;;;;;;;;;;;;4820106;29;20118;-68
2022/03/25 05:59:36;;;;;;;118.13;66.75;;;;;;;;;;4818537;29;20397;-69
2022/03/25 06:02:03;;;;;;;115.85;66.07;;;;;;;;;;4820130;29;20058;-68
2022/03/25 06:04:29;;;;;;;119.95;67.45;;;;;;;;;;4819824;29;20061;-68
2022/03/25 06:06:55;;;;;;;119.18;68.20;;;;;;;;;;4803762;29;20046;-68
2022/03/25 06:09:21;;;;;;;114.03;68.55;;;;;;;;;;4820120;29;20046;-68
2022/03/25 06:11:47;;;;;;;106.30;60.97;;;;;;;;;;4804080;29;20070;-69
2022/03/25 06:14:14;;;;;;;112.10;64.95;;;;;;;;;;4788391;29;20054;-68
2022/03/25 06:16:40;;;;;;;108.97;62.72;;;;;;;;;;4832701;29;20118;-69
2022/03/25 06:19:07;;;;;;;111.45;62.58;;;;;;;;;;4819537;29;20129;-69
2022/03/25 06:21:33;;;;;;;108.65;62.40;;;;;;;;;;4819778;29;20141;-70
2022/03/25 06:23:59;;;;;;;106.05;58.90;;;;;;;;;;4819394;29;20046;-68
2022/03/25 06:26:25;;;;;;;103.53;59.83;;;;;;;;;;4803056;29;20133;-68
2022/03/25 06:28:51;;;;;;;103.75;60.55;;;;;;;;;;4831879;29;20062;-68
2022/03/25 06:31:18;;;;;;;100.20;58.75;;;;;;;;;;4832663;29;20055;-68
2022/03/25 06:33:44;;;;;;;100.90;60.47;;;;;;;;;;4819438;29;20428;-68
2022/03/25 06:36:13;;;;;;;97.93;60.10;;;;;;;;;;4819128;29;20054;-68
2022/03/25 06:38:40;;;;;;;92.03;56.88;;;;;;;;;;4832909;29;20510;-69
2022/03/25 06:41:07;;;;;;;91.70;56.67;;;;;;;;;;4818859;29;20098;-68
2022/03/25 06:43:34;;;;;;;84.47;52.92;;;;;;;;;;4819363;29;20046;-68
2022/03/25 06:46:00;;;;;;;84.88;54.25;;;;;;;;;;4819210;29;20223;-69
2022/03/25 06:48:26;;;;;;;77.20;51.05;;;;;;;;;;4802653;29;20062;-68
2022/03/25 06:50:54;;;;;;;88.25;53.20;;;;;;;;;;4819335;29;20097;-68
2022/03/25 06:53:20;;;;;;;84.50;51.70;;;;;;;;;;4833232;29;20070;-68
2022/03/25 06:55:46;;;;;;;79.22;50.63;;;;;;;;;;4818841;29;20488;-68
2022/03/25 06:58:15;;;;;;;77.88;50.28;;;;;;;;;;4818775;29;20520;-69
2022/03/25 07:00:42;;;;;;;79.90;49.92;;;;;;;;;;4819112;29;20486;-69
2022/03/25 07:03:09;;;;;;;86.55;51.67;;;;;;;;;;4831473;29;20123;-69
2022/03/25 07:05:36;;;;;;;82.60;48.95;;;;;;;;;;4818946;29;20065;-69
2022/03/25 07:08:03;;;;;;;78.10;47.67;;;;;;;;;;4819015;29;20054;-69
2022/03/25 07:10:33;;;;;;;73.28;45.80;;;;;;;;;;4818937;29;20076;-68
2022/03/25 07:12:59;;;;;;;77.25;48.40;;;;;;;;;;4819128;29;20465;-68
2022/03/25 07:15:25;;;;;;;75.75;46.00;;;;;;;;;;4832523;29;20126;-68
2022/03/25 07:17:52;;;;;;;;;;;;;;;;;;4832999;29;20201;-69
2022/03/25 07:20:18;;;;;;;69.10;41.65;;;;;;;;;;4819048;29;20059;-68
2022/03/25 07:22:44;;;;;;;;;;;;;;;;;;4832824;29;20134;-69
2022/03/25 07:25:11;;;;;;;68.57;43.17;;;;;;;;;;4819101;29;20027;-68
2022/03/25 07:27:39;;;;;;;70.80;41.78;;;;;;;;;;4833206;29;20065;-68
2022/03/25 07:30:05;;;;;;;66.30;41.97;;;;;;;;;;4818860;29;20054;-69
2022/03/25 07:32:41;;;;;;;64.85;38.13;;;;;;;;;;4818987;29;20046;-69
2022/03/25 07:35:07;;;;;;;63.88;40.38;;;;;;;;;;4818787;29;20168;-69
2022/03/25 07:37:34;;;;;;;69.30;41.65;;;;;;;;;;4802035;29;20061;-69
2022/03/25 07:40:00;;;;;;;62.42;39.05;;;;;;;;;;4801576;29;20043;-68
2022/03/25 07:42:27;;;;;;;62.90;40.03;;;;;;;;;;4819024;29;20058;-68
2022/03/25 07:44:53;;;;;;;59.85;36.95;;;;;;;;;;4818839;29;20086;-68
2022/03/25 07:47:19;;;;;;;59.15;37.47;;;;;;;;;;4818459;29;20043;-68
2022/03/25 07:49:46;;;;;;;59.00;35.78;;;;;;;;;;4832033;29;20123;-69
2022/03/25 07:52:12;;;;;;;;;;;;;;;;;;4819009;29;20103;-69
2022/03/25 07:54:41;;;;;;;56.15;36.42;;;;;;;;;;4818345;29;19925;-69
2022/03/25 07:57:07;;;;;;;60.72;37.03;;;;;;;;;;4818503;29;20145;-68
2022/03/25 07:59:34;;;;;;;56.70;34.10;;;;;;;;;;4818619;29;20133;-69
2022/03/25 08:02:01;;;;;;;57.53;35.50;;;;;;;;;;4818348;29;20364;-69
2022/03/25 08:04:27;;;;;;;54.95;33.58;;;;;;;;;;4817382;29;20058;-68
2022/03/25 08:06:54;;;;;;;52.97;32.42;;;;;;;;;;4818594;29;20046;-67
2022/03/25 08:09:23;;;;;;;52.30;32.22;;;;;;;;;;4831553;29;20051;-69
2022/03/25 08:11:49;;;;;;;53.42;31.98;;;;;;;;;;4818465;29;20333;-69
2022/03/25 08:14:16;;;;;;;54.40;33.33;;;;;;;;;;4801722;29;20082;-69
2022/03/25 08:16:45;;;;;;;52.25;32.17;;;;;;;;;;4772288;30;20082;-69
2022/03/25 08:19:12;;;;;;;58.33;31.58;;;;;;;;;;4782252;30;20378;-68
2022/03/25 08:21:39;;;;;;;54.28;33.03;;;;;;;;;;4782075;30;20450;-69
2022/03/25 08:29:36;;;;;;;49.78;31.48;;;;;;;;;;4783132;30;20061;-69
2022/03/25 08:32:02;;;;;;;49.03;30.67;;;;;;;;;;4781369;30;20222;-69
2022/03/25 08:34:29;;;;;;;51.97;28.88;;;;;;;;;;4781548;29;20175;-69
2022/03/25 08:36:55;;;;;;;46.10;26.85;;;;;;;;;;4781798;30;20051;-69
2022/03/25 08:39:22;;;;;;;47.63;28.10;;;;;;;;;;4810768;29;20055;-69
2022/03/25 08:41:49;;;;;;;45.15;26.23;;;;;;;;;;4780251;30;20062;-71
2022/03/25 08:44:15;;;;;;;45.83;27.45;;;;;;;;;;4781786;30;20073;-69
2022/03/25 08:46:42;;;;;;;50.42;27.25;;;;;;;;;;4781638;30;20209;-68
2022/03/25 08:49:10;;;;;;;46.42;25.70;;;;;;;;;;4810600;29;20091;-68
2022/03/25 08:51:36;;;;;;;44.60;25.77;;;;;;;;;;4783912;29;20051;-70
2022/03/25 08:54:02;;;;;;;46.42;26.05;;;;;;;;;;4784858;30;20511;-69
2022/03/25 08:56:28;;;;;;;42.50;22.85;;;;;;;;;;4785869;30;20051;-70
2022/03/25 08:58:58;;;;;;;49.13;26.10;;;;;;;;;;4785255;30;20120;-68
2022/03/25 09:01:24;;;;;;;47.25;25.65;;;;;;;;;;4785179;30;20158;-68
2022/03/25 09:03:50;;;;;;;;;;;;;;;;;;4786003;30;20139;-68
2022/03/25 09:06:17;;;;;;;44.10;24.67;;;;;;;;;;4784962;30;20453;-69
2022/03/25 09:08:43;;;;;;;43.28;23.63;;;;;;;;;;4784999;30;20112;-72
2022/03/25 09:11:09;;;;;;;40.88;23.20;;;;;;;;;;4784978;30;20062;-83
2022/03/25 09:13:36;;;;;;;45.25;23.27;;;;;;;;;;4783924;30;20152;-79
2022/03/25 09:16:02;;;;;;;42.72;24.60;;;;;;;;;;4813027;29;20071;-68
2022/03/25 09:18:28;;;;;;;38.58;22.27;;;;;;;;;;4784942;30;20123;-70
2022/03/25 09:20:54;;;;;;;40.33;22.33;;;;;;;;;;4768074;30;20098;-71
2022/03/25 09:23:20;;;;;;;39.47;21.60;;;;;;;;;;4784717;30;20075;-67
2022/03/25 09:25:46;;;;;;;40.22;21.42;;;;;;;;;;4785165;30;20099;-68
2022/03/25 09:28:12;;;;;;;40.45;21.83;;;;;;;;;;4784560;30;20055;-68
2022/03/25 09:30:39;;;;;;;40.25;20.15;;;;;;;;;;4783390;30;20055;-69
2022/03/25 09:33:07;;;;;;;37.92;19.58;;;;;;;;;;4784719;30;20102;-71
2022/03/25 09:35:34;;;;;;;39.55;19.27;;;;;;;;;;4784626;30;20070;-69
2022/03/25 09:38:00;;;;;;;38.88;20.17;;;;;;;;;;4784295;30;20357;-69
2022/03/25 09:40:27;;;;;;;47.50;26.75;;;;;;;;;;4784626;30;20098;-72
2022/03/25 09:42:55;;;;;;;43.88;21.95;;;;;;;;;;4784919;30;20155;-68
2022/03/25 09:45:22;;;;;;;44.67;21.58;;;;;;;;;;4784513;30;20051;-71
2022/03/25 09:47:49;;;;;;;39.08;21.88;;;;;;;;;;4784515;30;20048;-72
2022/03/25 09:50:17;;;;;;;37.40;21.13;;;;;;;;;;4782868;30;20209;-71
2022/03/25 09:52:44;;;;;;;39.83;21.75;;;;;;;;;;4784196;30;20047;-70
2022/03/25 09:55:10;;;;;;;35.85;20.60;;;;;;;;;;4784390;30;20077;-70
2022/03/25 09:57:40;;;;;;;36.50;22.20;;;;;;;;;;4784103;30;20055;-70
2022/03/25 10:00:08;;;;;;;40.33;22.27;;;;;;;;;;4782653;30;20082;-69
2022/03/25 10:02:37;;;;;;;37.22;21.25;;;;;;;;;;4783613;29;20484;-71
2022/03/25 10:05:13;;;;;;;37.53;21.42;;;;;;;;;;4784307;30;20121;-69
2022/03/25 10:07:43;;;;;;;39.58;22.02;;;;;;;;;;4784388;30;20052;-71
2022/03/25 10:10:11;;;;;;;42.60;23.48;;;;;;;;;;4813129;29;20138;-70
2022/03/25 10:12:38;;;;;;;43.80;23.63;;;;;;;;;;4812931;29;20244;-72
2022/03/25 10:15:19;;;;;;;43.67;23.85;;;;;;;;;;4783914;30;20071;-69
2022/03/25 10:17:48;;;;;;;40.17;23.38;;;;;;;;;;4783966;29;20537;-72
2022/03/25 10:20:14;;;;;;;39.53;22.60;;;;;;;;;;4783716;29;20063;-70
2022/03/25 10:22:40;;;;;;;43.80;23.70;;;;;;;;;;4782293;29;20200;-71
2022/03/25 10:25:09;;;;;;;;;;;;;;;;;;4782310;30;20059;-71
2022/03/25 10:27:35;;;;;;;39.90;23.48;;;;;;;;;;4812564;29;19977;-72
2022/03/25 10:30:03;;;;;;;48.80;25.10;;;;;;;;;;4781773;30;20146;-68
2022/03/25 10:32:30;;;;;;;46.70;25.60;;;;;;;;;;4783584;29;20108;-69
2022/03/25 10:35:07;;;;;;;47.00;26.10;;;;;;;;;;4752865;30;20067;-70
2022/03/25 10:37:34;;;;;;;46.97;25.70;;;;;;;;;;4783533;29;20156;-68
2022/03/25 10:40:00;;;;;;;45.85;23.27;;;;;;;;;;4783249;29;20130;-69
2022/03/25 10:42:26;;;;;;;48.30;24.20;;;;;;;;;;4783265;29;20075;-69
2022/03/25 10:44:52;;;;;;;46.47;24.15;;;;;;;;;;4783150;29;20047;-70
2022/03/25 10:47:23;;;;;;;45.83;25.77;;;;;;;;;;4783335;29;20158;-70
2022/03/25 10:49:49;;;;;;;43.78;24.73;;;;;;;;;;4783083;29;20095;-70
2022/03/25 10:52:30;;;;;;;43.20;24.13;;;;;;;;;;4783279;29;20130;-71
2022/03/25 10:55:14;;;;;;;43.72;22.73;;;;;;;;;;4782492;29;20434;-70
2022/03/25 10:57:55;;;;;;;44.95;23.67;;;;;;;;;;4783522;29;20124;-70
2022/03/25 11:00:24;;;;;;;46.97;23.02;;;;;;;;;;4812633;29;20070;-69
2022/03/25 11:02:51;;;;;;;39.38;21.88;;;;;;;;;;4782263;29;20063;-69
2022/03/25 11:05:17;;;;;;;41.35;22.67;;;;;;;;;;4782637;29;20055;-68
2022/03/25 11:07:45;;;;;;;47.20;24.60;;;;;;;;;;4766274;30;20392;-67
2022/03/25 11:10:13;;;;;;;43.85;23.35;;;;;;;;;;4782929;29;20112;-68
2022/03/25 11:12:43;;;;;;;47.60;24.63;;;;;;;;;;4781945;30;20051;-68
2022/03/25 11:15:13;;;;;;;45.85;24.17;;;;;;;;;;4766267;30;20438;-70
2022/03/25 11:17:43;;;;;;;42.45;23.73;;;;;;;;;;4832306;29;20337;-70
2022/03/25 11:20:10;;;;;;;51.00;25.02;;;;;;;;;;4818907;29;20050;-70
2022/03/25 11:22:48;;;;;;;46.88;24.83;;;;;;;;;;4819109;29;20115;-69
2022/03/25 11:25:21;;;;;;;51.55;26.33;;;;;;;;;;4833103;29;20058;-67
2022/03/25 11:27:53;;;;;;;46.35;24.63;;;;;;;;;;4832517;29;20057;-67
2022/03/25 11:30:20;;;;;;;47.17;24.40;;;;;;;;;;4818712;29;20086;-66
2022/03/25 11:33:06;;;;;;;47.42;24.38;;;;;;;;;;4818994;29;20069;-66
2022/03/25 11:35:33;;;;;;;42.05;22.52;;;;;;;;;;4832145;29;20058;-67
2022/03/25 11:38:11;;;;;;;42.05;23.42;;;;;;;;;;4818791;29;20057;-67
2022/03/25 11:40:42;;;;;;;38.03;20.50;;;;;;;;;;4818778;29;20065;-67
2022/03/25 11:43:18;;;;;;;39.47;20.65;;;;;;;;;;4832310;29;20073;-67
2022/03/25 11:45:45;;;;;;;41.50;21.58;;;;;;;;;;4818932;29;20084;-68
2022/03/25 11:48:11;;;;;;;37.70;19.30;;;;;;;;;;4818663;29;20117;-71
2022/03/25 11:50:38;;;;;;;36.38;20.15;;;;;;;;;;4802205;29;20106;-67
2022/03/25 11:53:11;;;;;;;43.13;20.15;;;;;;;;;;4832488;29;20107;-67
2022/03/25 11:55:55;;;;;;;40.90;19.52;;;;;;;;;;4818763;29;20453;-67
2022/03/25 11:58:22;;;;;;;36.70;19.45;;;;;;;;;;4818746;29;20459;-65
2022/03/25 12:00:48;;;;;;;;;;;;;;;;;;4819066;29;20204;-67
2022/03/25 12:03:15;;;;;;;32.70;17.55;;;;;;;;;;4818579;29;19924;-68
2022/03/25 12:06:00;;;;;;;34.20;17.80;;;;;;;;;;4832122;29;20133;-66
2022/03/25 12:08:35;;;;;;;37.28;16.88;;;;;;;;;;4818419;29;20192;-67
2022/03/25 12:11:11;;;;;;;32.35;16.40;;;;;;;;;;4818459;29;20086;-66
2022/03/25 12:13:53;;;;;;;31.05;16.75;;;;;;;;;;4818102;29;20065;-68
2022/03/25 12:16:38;;;;;;;30.92;16.08;;;;;;;;;;4818248;29;20153;-64
2022/03/25 12:19:04;;;;;;;31.00;16.25;;;;;;;;;;4818443;29;20204;-66
2022/03/25 12:21:33;;;;;;;31.05;14.98;;;;;;;;;;4818442;29;20165;-66
2022/03/25 12:24:01;;;;;;;30.92;15.88;;;;;;;;;;4831998;29;20139;-67
2022/03/25 12:26:31;;;;;;;35.38;15.57;;;;;;;;;;4803378;29;20441;-66
2022/03/25 12:28:58;;;;;;;33.70;17.98;;;;;;;;;;4820683;29;20108;-62
2022/03/25 12:31:25;;;;;;;38.65;19.10;;;;;;;;;;4835499;29;20476;-67
2022/03/25 12:33:55;;;;;;;39.13;21.05;;;;;;;;;;4821529;29;20129;-65
2022/03/25 12:36:23;;;;;;;39.78;18.52;;;;;;;;;;4821507;29;20046;-68
2022/03/25 12:38:49;;;;;;;43.95;23.00;;;;;;;;;;4821546;29;20142;-66
2022/03/25 12:41:34;;;;;;;41.25;24.10;;;;;;;;;;4821599;29;20133;-65
2022/03/25 12:44:01;;;;;;;39.95;23.55;;;;;;;;;;4821666;29;20135;-64
2022/03/25 12:46:28;;;;;;;38.30;21.45;;;;;;;;;;4821471;29;20050;-67
2022/03/25 12:49:04;;;;;;;40.60;22.95;;;;;;;;;;4821050;29;20110;-66
2022/03/25 12:51:30;;;;;;;39.17;21.92;;;;;;;;;;4834690;29;20061;-67
2022/03/25 12:53:56;;;;;;;39.92;20.67;;;;;;;;;;4835021;29;20064;-67
2022/03/25 12:56:22;;;;;;;43.78;23.20;;;;;;;;;;4820475;29;20102;-67
2022/03/25 12:58:49;;;;;;;42.33;21.75;;;;;;;;;;4820927;29;20050;-66
2022/03/25 13:01:16;;;;;;;43.13;22.92;;;;;;;;;;4820709;29;20069;-67
2022/03/25 13:03:44;;;;;;;39.65;21.70;;;;;;;;;;4821152;29;20065;-68
2022/03/25 13:06:13;;;;;;;40.95;21.42;;;;;;;;;;4821057;29;20129;-67
2022/03/25 13:08:40;;;;;;;43.85;21.35;;;;;;;;;;4803684;29;20529;-67
2022/03/25 13:11:09;;;;;;;45.63;23.40;;;;;;;;;;4820713;29;20054;-67
2022/03/25 13:13:39;;;;;;;44.15;21.92;;;;;;;;;;4820613;29;20054;-67
2022/03/25 13:16:06;;;;;;;64.28;25.40;;;;;;;;;;4820191;29;20086;-64
2022/03/25 13:18:35;;;;;;;57.92;24.05;;;;;;;;;;4820609;29;20485;-67
2022/03/25 13:21:01;;;;;;;48.15;22.50;;;;;;;;;;4820502;29;20061;-67
2022/03/25 13:23:28;;;;;;;56.47;23.30;;;;;;;;;;4820590;29;20090;-68
2022/03/25 13:26:05;;;;;;;42.25;20.75;;;;;;;;;;4804402;29;20114;-66
2022/03/25 13:28:38;;;;;;;39.90;20.20;;;;;;;;;;4820775;29;20156;-67
2022/03/25 13:31:11;;;;;;;38.92;19.38;;;;;;;;;;4834394;29;20132;-65
2022/03/25 13:33:48;;;;;;;35.42;18.40;;;;;;;;;;4820185;29;20054;-65
2022/03/25 13:36:18;;;;;;;34.38;16.95;;;;;;;;;;4820300;29;20137;-66
2022/03/25 13:38:47;;;;;;;38.42;17.85;;;;;;;;;;4819487;29;20416;-67
2022/03/25 13:41:19;;;;;;;35.35;16.67;;;;;;;;;;4820572;29;20094;-66
2022/03/25 13:43:50;;;;;;;32.13;15.02;;;;;;;;;;4834467;29;20118;-67
2022/03/25 13:46:20;;;;;;;31.80;15.52;;;;;;;;;;4820598;29;20068;-66
2022/03/25 13:48:46;;;;;;;30.15;14.32;;;;;;;;;;4820523;29;20121;-67
2022/03/25 13:51:21;;;;;;;33.22;15.43;;;;;;;;;;4820347;29;20152;-65
2022/03/25 13:53:48;;;;;;;34.90;16.10;;;;;;;;;;4820308;29;20449;-66
2022/03/25 13:56:16;;;;;;;33.42;15.77;;;;;;;;;;4820236;29;20054;-67
2022/03/25 13:58:48;;;;;;;39.33;17.90;;;;;;;;;;4803035;29;20080;-66
2022/03/25 14:01:15;;;;;;;43.70;20.17;;;;;;;;;;4820128;29;20130;-67
2022/03/25 14:03:41;;;;;;;40.03;20.33;;;;;;;;;;4819797;29;20137;-67
2022/03/25 14:06:11;;;;;;;40.15;21.02;;;;;;;;;;4819898;29;20091;-66
2022/03/25 14:08:38;;;;;;;44.40;22.60;;;;;;;;;;4819839;29;20077;-67
2022/03/25 14:11:04;;;;;;;45.50;23.88;;;;;;;;;;4819909;29;20054;-63
2022/03/25 14:13:31;;;;;;;46.90;26.40;;;;;;;;;;4803291;29;20050;-66
2022/03/25 14:16:13;;;;;;;47.17;25.80;;;;;;;;;;4818697;29;20393;-64
2022/03/25 14:18:53;;;;;;;47.70;26.20;;;;;;;;;;4819786;29;20141;-65
2022/03/25 14:21:29;;;;;;;49.80;26.83;;;;;;;;;;4803435;29;20146;-66
2022/03/25 14:24:42;;;;;;;48.42;25.73;;;;;;;;;;4819857;29;20054;-66
2022/03/25 14:26:42;;;;;;;44.40;23.95;;;;;;;;;;4796206;29;20142;-67